createdAt,value
2022-08-05T00:02:11.462Z,101030.84
2022-08-05T00:04:40.309Z,101011.72
2022-08-05T00:07:26.936Z,100996.94
2022-08-05T00:09:54.625Z,100993.13
2022-08-05T00:12:29.836Z,100967.09
2022-08-05T00:14:56.549Z,100985.47
2022-08-05T00:17:23.256Z,100993.63
2022-08-05T00:20:02.514Z,101001.16
2022-08-05T00:22:31.084Z,100933.84
2022-08-05T00:25:01.245Z,101015.34
2022-08-05T00:27:36.162Z,101016.50
2022-08-05T00:30:05.357Z,101023.09
2022-08-05T00:32:38.269Z,100948.09
2022-08-05T00:35:08.097Z,101030.06
2022-08-05T00:37:53.206Z,101009.31
2022-08-05T00:40:27.267Z,101008.81
2022-08-05T00:42:58.228Z,100950.28
2022-08-05T00:45:38.412Z,100861.75
2022-08-05T00:48:27.418Z,100941.81
2022-08-05T00:50:59.795Z,101016.28
2022-08-05T00:54:01.110Z,101007.94
2022-08-05T00:56:23.113Z,100829.34
2022-08-05T00:58:50.389Z,100988.25
2022-08-05T01:02:17.019Z,101041.81
2022-08-05T01:04:43.686Z,101054.44
2022-08-05T01:08:41.698Z,101059.19
2022-08-05T01:10:57.924Z,100938.47
2022-08-05T01:13:58.551Z,101053.88
2022-08-05T01:17:09.390Z,101068.97
2022-08-05T01:20:01.964Z,100895.53
2022-08-05T01:23:47.144Z,100999.06
2022-08-05T01:26:56.970Z,101070.94
2022-08-05T01:29:39.623Z,100854.09
2022-08-05T01:32:12.712Z,101082.75
2022-08-05T01:35:02.651Z,101056.59
2022-08-05T01:37:44.338Z,101005.34
2022-08-05T01:40:17.815Z,101051.47
2022-08-05T01:42:51.307Z,101039.66
2022-08-05T01:45:34.961Z,101004.25
2022-08-05T01:48:12.923Z,100648.84
2022-08-05T01:50:41.731Z,100953.06
2022-08-05T01:53:54.879Z,100658.25
2022-08-05T01:58:09.772Z,100648.63
2022-08-05T01:59:07.568Z,100867.09
2022-08-05T02:01:39.982Z,100986.78
2022-08-05T02:04:10.377Z,100840.84
2022-08-05T02:06:39.876Z,100925.19
2022-08-05T02:09:08.292Z,100956.22
2022-08-05T02:11:52.609Z,100814.13
2022-08-05T02:14:55.437Z,100904.88
2022-08-05T02:21:56.524Z,100921.22
2022-08-05T02:28:02.388Z,100915.69
2022-08-05T02:30:57.130Z,100878.88
2022-08-05T02:33:38.280Z,100939.44
2022-08-05T02:36:09.812Z,100909.84
2022-08-05T02:41:43.019Z,100877.34
2022-08-05T02:44:19.789Z,100875.63
2022-08-05T02:47:00.912Z,100853.22
2022-08-05T02:49:37.143Z,100846.81
2022-08-05T02:52:29.740Z,100902.69
2022-08-05T02:54:58.974Z,100948.91
2022-08-05T02:58:09.941Z,100952.84
2022-08-05T03:00:17.965Z,101033.25
2022-08-05T03:02:47.960Z,101064.59
2022-08-05T03:05:21.852Z,101050.19
2022-08-05T03:08:08.945Z,101032.47
2022-08-05T03:10:36.553Z,100945.97
2022-08-05T03:13:16.723Z,100984.91
2022-08-05T03:15:54.623Z,100964.91
2022-08-05T03:18:24.685Z,100945.94
2022-08-05T03:20:57.027Z,100929.16
2022-08-05T03:23:26.011Z,100937.69
2022-08-05T03:26:04.725Z,100944.16
2022-08-05T03:28:42.590Z,100954.59
2022-08-05T03:31:09.403Z,100937.38
2022-08-05T03:33:52.702Z,100932.84
2022-08-05T03:36:30.182Z,100938.22
2022-08-05T03:38:59.070Z,100900.91
2022-08-05T03:41:33.251Z,100947.16
2022-08-05T03:44:11.530Z,100965.56
2022-08-05T03:46:53.751Z,100912.50
2022-08-05T03:49:21.088Z,100759.72
2022-08-05T03:52:36.907Z,100969.44
2022-08-05T03:56:00.779Z,100977.53
2022-08-05T03:57:46.115Z,100983.16
2022-08-05T04:00:18.189Z,100949.59
2022-08-05T04:02:57.685Z,100943.56
2022-08-05T04:05:40.208Z,100951.41
2022-08-05T04:08:29.647Z,100923.81
2022-08-05T04:11:02.266Z,100851.69
2022-08-05T04:13:50.930Z,100936.75
2022-08-05T04:16:24.922Z,100944.78
2022-08-05T04:18:57.786Z,100967.16
2022-08-05T04:22:09.882Z,100968.56
2022-08-05T04:24:19.613Z,100834.38
2022-08-05T04:26:50.361Z,100726.84
2022-08-05T04:29:24.786Z,100952.19
2022-08-05T04:31:53.875Z,100959.16
2022-08-05T04:34:32.473Z,100949.09
2022-08-05T04:37:03.462Z,100932.66
2022-08-05T04:40:19.628Z,100973.03
2022-08-05T04:42:52.437Z,100973.03
2022-08-05T04:45:22.930Z,100974.25
2022-08-05T04:48:28.518Z,100660.06
2022-08-05T04:51:03.405Z,100976.97
2022-08-05T04:53:38.641Z,101002.38
2022-08-05T04:56:33.789Z,101006.50
2022-08-05T04:58:58.265Z,101007.16
2022-08-05T05:02:04.053Z,100926.16
2022-08-05T05:04:13.627Z,101028.56
2022-08-05T05:06:44.847Z,100920.13
2022-08-05T05:09:18.331Z,101023.78
2022-08-05T05:11:52.950Z,101029.41
2022-08-05T05:14:31.537Z,101052.97
2022-08-05T05:17:02.130Z,101064.47
2022-08-05T05:19:56.562Z,100991.53
2022-08-05T05:22:26.029Z,100890.59
2022-08-05T05:24:56.852Z,101024.28
2022-08-05T05:27:56.250Z,101059.44
2022-08-05T05:30:29.645Z,101048.84
2022-08-05T05:33:00.972Z,101062.56
2022-08-05T05:35:37.992Z,101065.47
2022-08-05T05:38:09.174Z,101072.97
2022-08-05T05:40:49.621Z,101057.56
2022-08-05T05:43:27.560Z,100766.25
2022-08-05T05:46:13.813Z,100888.94
2022-08-05T05:48:44.529Z,100982.06
2022-08-05T05:51:14.980Z,101037.41
2022-08-05T05:53:46.012Z,101043.75
2022-08-05T05:56:26.108Z,100847.38
2022-08-05T05:58:58.642Z,101025.97
2022-08-05T06:01:37.742Z,101013.25
2022-08-05T06:04:05.471Z,101046.16
2022-08-05T06:06:34.677Z,100942.03
2022-08-05T06:09:03.836Z,100917.84
2022-08-05T06:11:30.582Z,101063.81
2022-08-05T06:13:57.209Z,101058.56
2022-08-05T06:16:28.320Z,101061.72
2022-08-05T06:19:01.246Z,101066.25
2022-08-05T06:21:36.799Z,101060.44
2022-08-05T06:24:11.929Z,101046.38
2022-08-05T06:26:51.883Z,101051.81
2022-08-05T06:29:24.993Z,101060.44
2022-08-05T06:32:21.451Z,101066.22
2022-08-05T06:34:56.752Z,101067.88
2022-08-05T06:37:55.896Z,101066.75
2022-08-05T06:40:21.031Z,101037.47
2022-08-05T06:42:51.879Z,101042.19
2022-08-05T06:45:43.943Z,101061.06
2022-08-05T06:48:44.294Z,101054.50
2022-08-05T06:51:09.530Z,101059.47
2022-08-05T06:53:39.368Z,100945.09
2022-08-05T06:56:07.306Z,101076.91
2022-08-05T06:58:52.766Z,101070.16
2022-08-05T07:01:21.010Z,100937.75
2022-08-05T07:03:47.924Z,101069.13
2022-08-05T07:06:15.265Z,101079.53
2022-08-05T07:08:47.772Z,100870.44
2022-08-05T07:11:19.689Z,101091.75
2022-08-05T07:14:07.887Z,101087.50
2022-08-05T07:17:58.982Z,101114.56
2022-08-05T07:22:30.234Z,101113.28
2022-08-05T07:25:23.147Z,100916.94
2022-08-05T07:27:58.152Z,101094.31
2022-08-05T07:30:33.664Z,100795.84
2022-08-05T07:33:09.943Z,101004.41
2022-08-05T07:36:01.485Z,100927.16
2022-08-05T07:38:34.378Z,100974.84
2022-08-05T07:41:35.026Z,101079.06
2022-08-05T07:43:56.922Z,101065.47
2022-08-05T07:46:28.528Z,101076.66
2022-08-05T07:49:02.311Z,101053.25
2022-08-05T07:51:37.098Z,101083.53
2022-08-05T07:54:09.799Z,101060.84
2022-08-05T07:57:13.629Z,101069.56
2022-08-05T07:59:38.638Z,100983.59
2022-08-05T08:02:15.448Z,100892.19
2022-08-05T08:04:45.607Z,100688.31
2022-08-05T08:07:13.012Z,101066.97
2022-08-05T08:09:39.923Z,101081.19
2022-08-05T08:12:27.535Z,100780.72
2022-08-05T08:14:54.793Z,101081.59
2022-08-05T08:17:22.254Z,100831.31
2022-08-05T08:20:44.495Z,101102.22
2022-08-05T08:22:37.561Z,100731.22
2022-08-05T08:25:15.805Z,100956.34
2022-08-05T08:27:44.940Z,101048.09
2022-08-05T08:30:29.475Z,101108.19
2022-08-05T08:33:02.562Z,101100.78
2022-08-05T08:36:07.985Z,101096.84
2022-08-05T08:38:38.947Z,101104.63
2022-08-05T08:41:08.557Z,101100.78
2022-08-05T08:45:24.776Z,101089.13
2022-08-05T08:46:27.488Z,101079.88
2022-08-05T08:49:06.357Z,101091.94
2022-08-05T08:52:05.608Z,101092.13
2022-08-05T08:54:31.699Z,101095.97
2022-08-05T08:57:00.418Z,101099.53
2022-08-05T08:59:33.537Z,100991.63
2022-08-05T09:02:04.445Z,101088.13
2022-08-05T09:04:58.467Z,100989.72
2022-08-05T09:07:28.747Z,101018.69
2022-08-05T09:09:56.601Z,100966.06
2022-08-05T09:12:27.364Z,101112.53
2022-08-05T09:14:59.426Z,101119.00
2022-08-05T09:17:42.358Z,101121.22
2022-08-05T09:20:36.644Z,100877.78
2022-08-05T09:23:07.984Z,100998.84
2022-08-05T09:25:59.869Z,101134.97
2022-08-05T09:28:31.631Z,100822.47
2022-08-05T09:31:22.408Z,101132.28
2022-08-05T09:34:11.659Z,101141.41
2022-08-05T09:36:59.811Z,100823.22
2022-08-05T09:39:45.263Z,101139.31
2022-08-05T09:42:40.126Z,101144.50
2022-08-05T09:46:04.697Z,101147.44
2022-08-05T09:48:00.271Z,101161.78
2022-08-05T09:51:14.971Z,101123.81
2022-08-05T09:53:53.853Z,101152.53
2022-08-05T09:56:34.120Z,101148.91
2022-08-05T09:59:09.674Z,101137.28
2022-08-05T10:01:46.496Z,100816.75
2022-08-05T10:04:16.215Z,101125.25
2022-08-05T10:07:01.672Z,101125.69
2022-08-05T10:10:04.398Z,100914.97
2022-08-05T10:12:52.730Z,101039.34
2022-08-05T10:15:34.268Z,101137.50
2022-08-05T10:18:13.408Z,101143.25
2022-08-05T10:20:47.687Z,101143.34
2022-08-05T10:23:55.108Z,101107.19
2022-08-05T10:26:18.143Z,101120.66
2022-08-05T10:28:47.731Z,101131.00
2022-08-05T10:32:49.466Z,101118.16
2022-08-05T10:34:07.092Z,101145.66
2022-08-05T10:36:40.474Z,101167.53
2022-08-05T10:39:15.183Z,101154.28
2022-08-05T10:42:18.552Z,101151.28
2022-08-05T10:44:46.756Z,101159.28
2022-08-05T10:47:27.113Z,101159.47
2022-08-05T10:50:31.606Z,101090.41
2022-08-05T10:53:02.275Z,101163.72
2022-08-05T10:56:03.618Z,101115.28
2022-08-05T10:58:21.783Z,101155.63
2022-08-05T11:01:07.401Z,101079.22
2022-08-05T11:04:15.698Z,101183.22
2022-08-05T11:07:02.216Z,100745.78
2022-08-05T11:09:45.614Z,101210.66
2022-08-05T11:12:45.469Z,101193.16
2022-08-05T11:16:01.171Z,101204.69
2022-08-05T11:18:30.047Z,101216.59
2022-08-05T11:20:59.109Z,101180.84
2022-08-05T11:24:03.812Z,101040.91
2022-08-05T11:26:37.088Z,101191.63
2022-08-05T11:29:13.466Z,101229.31
2022-08-05T11:31:58.907Z,101244.69
2022-08-05T11:34:51.826Z,101222.91
2022-08-05T11:38:36.562Z,101223.78
2022-08-05T11:41:03.508Z,101194.16
2022-08-05T11:44:05.962Z,101246.34
2022-08-05T11:47:09.634Z,101261.50
2022-08-05T11:49:28.431Z,101248.16
2022-08-05T11:51:55.309Z,101246.06
2022-08-05T11:54:33.587Z,101202.00
2022-08-05T11:57:25.169Z,101023.19
2022-08-05T12:00:02.310Z,101219.69
2022-08-05T12:02:36.113Z,101239.53
2022-08-05T12:05:07.010Z,101270.03
2022-08-05T12:08:03.361Z,101276.00
2022-08-05T12:10:45.598Z,101141.25
2022-08-05T12:13:17.046Z,101121.03
2022-08-05T12:15:50.241Z,101260.22
2022-08-05T12:18:33.291Z,100971.78
2022-08-05T12:21:19.687Z,101015.97
2022-08-05T12:24:04.319Z,101276.22
2022-08-05T12:26:44.117Z,101275.09
2022-08-05T12:29:17.993Z,101090.31
2022-08-05T12:32:02.044Z,101240.78
2022-08-05T12:34:33.749Z,101286.06
2022-08-05T12:37:29.822Z,101267.41
2022-08-05T12:40:10.655Z,101054.25
2022-08-05T12:42:37.520Z,101292.59
2022-08-05T12:45:09.711Z,101318.75
2022-08-05T12:47:38.331Z,101293.75
2022-08-05T12:50:19.940Z,101291.88
2022-08-05T12:52:59.756Z,101150.53
2022-08-05T12:55:33.016Z,101263.69
2022-08-05T12:58:38.552Z,101285.38
2022-08-05T13:02:01.735Z,101275.97
2022-08-05T13:03:42.183Z,101119.00
2022-08-05T13:06:19.866Z,101251.94
2022-08-05T13:08:51.987Z,101278.94
2022-08-05T13:12:01.479Z,101151.56
2022-08-05T13:14:35.964Z,101276.53
2022-08-05T13:17:31.602Z,101178.47
2022-08-05T13:20:23.452Z,101155.13
2022-08-05T13:22:53.367Z,101293.69
2022-08-05T13:25:51.981Z,101183.53
2022-08-05T13:28:11.714Z,101299.13
2022-08-05T13:30:40.831Z,101293.50
2022-08-05T13:33:07.603Z,101309.41
2022-08-05T13:35:47.286Z,101165.00
2022-08-05T13:38:28.182Z,101120.94
2022-08-05T13:40:58.530Z,101293.41
2022-08-05T13:43:43.341Z,101304.34
2022-08-05T13:46:12.710Z,101302.03
2022-08-05T13:48:58.742Z,101308.19
2022-08-05T13:51:40.307Z,101298.09
2022-08-05T13:54:12.560Z,101151.59
2022-08-05T13:56:45.576Z,101294.78
2022-08-05T13:59:24.167Z,101145.56
2022-08-05T14:02:00.382Z,101304.03
2022-08-05T14:04:50.021Z,101296.81
2022-08-05T14:07:25.689Z,101291.19
2022-08-05T14:10:18.955Z,101275.97
2022-08-05T14:12:55.158Z,101296.25
2022-08-05T14:16:04.464Z,101294.13
2022-08-05T14:18:15.283Z,101258.97
2022-08-05T14:20:47.930Z,101264.75
2022-08-05T14:23:23.470Z,101269.72
2022-08-05T14:25:53.973Z,101152.44
2022-08-05T14:28:26.880Z,100935.19
2022-08-05T14:30:54.440Z,101299.13
2022-08-05T14:33:22.683Z,101060.69
2022-08-05T14:35:51.564Z,101120.94
2022-08-05T14:38:32.558Z,101259.81
2022-08-05T14:41:07.941Z,101134.44
2022-08-05T14:43:59.324Z,101294.03
2022-08-05T14:46:23.462Z,101305.06
2022-08-05T14:48:56.867Z,101294.34
2022-08-05T14:51:24.863Z,101306.16
2022-08-05T14:54:27.746Z,101294.84
2022-08-05T14:56:47.030Z,101304.78
2022-08-05T14:59:35.600Z,101292.06
2022-08-05T15:02:03.952Z,101255.44
2022-08-05T15:04:45.033Z,101287.84
2022-08-05T15:08:08.865Z,101293.38
2022-08-05T15:10:01.483Z,101305.19
2022-08-05T15:12:51.597Z,101300.78
2022-08-05T15:15:55.661Z,101312.81
2022-08-05T15:18:07.832Z,101304.00
2022-08-05T15:20:37.448Z,101230.06
2022-08-05T15:23:09.517Z,101298.19
2022-08-05T15:25:52.968Z,101298.53
2022-08-05T15:28:26.958Z,101300.09
2022-08-05T15:30:55.183Z,101314.94
2022-08-05T15:34:18.535Z,101301.66
2022-08-05T15:36:17.819Z,101304.13
2022-08-05T15:40:58.793Z,101108.91
2022-08-05T15:41:56.299Z,101202.69
2022-08-05T15:44:27.551Z,101231.84
2022-08-05T15:46:57.932Z,101216.03
2022-08-05T15:49:53.644Z,101309.75
2022-08-05T15:52:29.593Z,101323.22
2022-08-05T15:55:08.388Z,101265.09
2022-08-05T16:01:29.296Z,101146.34
2022-08-05T16:03:59.572Z,101363.09
2022-08-05T16:17:13.273Z,100883.03
2022-08-05T16:20:04.337Z,101390.06
2022-08-05T16:22:38.698Z,101055.44
2022-08-05T16:25:11.463Z,101132.00
2022-08-05T16:27:59.811Z,101391.53
2022-08-05T16:34:16.470Z,100778.31
2022-08-05T16:40:06.443Z,100969.34
2022-08-05T16:46:04.781Z,101303.84
2022-08-05T16:52:06.189Z,101281.81
2022-08-05T16:54:36.163Z,101062.34
2022-08-05T17:00:50.180Z,101070.19
2022-08-05T17:03:21.358Z,101117.63
2022-08-05T17:05:54.034Z,100896.00
2022-08-05T17:08:52.676Z,101167.25
2022-08-05T17:11:25.783Z,101413.81
2022-08-05T17:14:00.629Z,101406.91
2022-08-05T17:16:38.212Z,101377.81
2022-08-05T17:19:10.991Z,101078.06
2022-08-05T17:21:59.661Z,101402.81
2022-08-05T17:24:35.062Z,101407.84
2022-08-05T17:27:09.975Z,101171.59
2022-08-05T17:30:00.590Z,101419.06
2022-08-05T17:32:35.167Z,101073.72
2022-08-05T17:35:05.403Z,101405.69
2022-08-05T17:37:41.545Z,100914.59
2022-08-05T17:40:18.514Z,101241.72
2022-08-05T17:42:53.215Z,101290.72
2022-08-05T17:45:25.157Z,101126.63
2022-08-05T17:48:39.112Z,101452.34
2022-08-05T17:54:42.406Z,101440.84
2022-08-05T17:57:50.006Z,101202.06
2022-08-05T18:00:31.144Z,101460.28
2022-08-05T18:03:02.579Z,101350.88
2022-08-05T18:05:35.579Z,101163.78
2022-08-05T18:17:01.209Z,101478.84
2022-08-05T18:19:54.057Z,101287.63
2022-08-05T18:23:15.961Z,101502.09
2022-08-05T18:25:57.810Z,101179.00
2022-08-05T18:28:37.199Z,101339.97
2022-08-05T18:31:33.806Z,101519.94
2022-08-05T18:34:13.509Z,101213.72
2022-08-05T18:37:33.656Z,101516.34
2022-08-05T18:41:53.995Z,101514.13
2022-08-05T18:43:48.709Z,101318.28
2022-08-05T18:46:59.050Z,101287.94
2022-08-05T19:25:21.641Z,101501.56
2022-08-05T19:30:48.883Z,101051.84
2022-08-05T19:33:35.122Z,101521.72
2022-08-05T19:36:06.402Z,101351.38
2022-08-05T19:38:39.156Z,101622.63
2022-08-05T19:41:34.694Z,101384.81
2022-08-05T19:44:20.068Z,101642.25
2022-08-05T19:46:53.536Z,101641.47
2022-08-05T19:49:26.631Z,101298.44
2022-08-05T19:52:09.285Z,101459.97
2022-08-05T19:54:47.557Z,101499.72
2022-08-05T19:57:20.065Z,101419.13
2022-08-05T20:00:10.188Z,101648.75
2022-08-05T20:03:00.061Z,101470.53
2022-08-05T20:05:43.130Z,101438.59
2022-08-05T20:08:37.963Z,101059.56
2022-08-05T20:11:40.109Z,101613.91
2022-08-05T20:14:12.671Z,101443.94
2022-08-05T20:16:44.677Z,101355.09
2022-08-05T20:19:16.549Z,101161.47
2022-08-05T20:21:48.607Z,101572.47
2022-08-05T20:24:27.352Z,101633.34
2022-08-05T20:26:57.342Z,101670.19
2022-08-05T20:29:27.800Z,101608.53
2022-08-05T20:32:04.401Z,101419.22
2022-08-05T20:34:33.854Z,101677.72
2022-08-05T20:37:18.116Z,101684.56
2022-08-05T20:40:21.444Z,101455.94
2022-08-05T20:42:54.516Z,101126.50
2022-08-05T20:45:55.768Z,101700.69
2022-08-05T20:48:32.714Z,101695.75
2022-08-05T20:51:08.108Z,101434.06
2022-08-05T20:53:40.944Z,101517.44
2022-08-05T20:59:46.078Z,101668.91
2022-08-05T21:02:39.615Z,101440.97
2022-08-05T21:05:24.903Z,101443.34
2022-08-05T21:07:56.266Z,101202.47
2022-08-05T21:10:49.401Z,101668.59
2022-08-05T21:13:47.488Z,101724.66
2022-08-05T21:16:16.923Z,101534.00
2022-08-05T21:18:47.701Z,101444.84
2022-08-05T21:21:17.264Z,101496.31
2022-08-05T21:23:47.949Z,101741.19
2022-08-05T21:26:21.411Z,101357.31
2022-08-05T21:28:56.286Z,101742.47
2022-08-05T21:31:41.521Z,101383.91
2022-08-05T21:34:11.671Z,101632.19
2022-08-05T21:36:43.386Z,101173.50
2022-08-05T21:39:26.841Z,101748.69
2022-08-05T21:42:01.070Z,101693.69
2022-08-05T21:44:34.401Z,101328.16
2022-08-05T21:47:05.521Z,101753.66
2022-08-05T21:50:00.059Z,101690.41
2022-08-05T21:52:40.764Z,101788.22
2022-08-05T21:55:42.817Z,101481.63
2022-08-05T21:58:10.251Z,101749.91
2022-08-05T22:01:00.497Z,101353.06
2022-08-05T22:03:49.088Z,101742.41
2022-08-05T22:06:22.456Z,101530.66
2022-08-05T22:09:01.334Z,101669.97
2022-08-05T22:11:53.185Z,101475.09
2022-08-05T22:14:35.867Z,101751.28
2022-08-05T22:17:30.452Z,101752.88
2022-08-05T22:20:14.648Z,101655.72
2022-08-05T22:23:16.810Z,101558.97
2022-08-05T22:26:09.996Z,101635.47
2022-08-05T22:28:39.684Z,101529.53
2022-08-05T22:31:11.220Z,101770.47
2022-08-05T22:33:57.973Z,101631.28
2022-08-05T22:36:30.914Z,101710.59
2022-08-05T22:39:21.519Z,101776.53
2022-08-05T22:42:10.314Z,101521.84
2022-08-05T22:44:53.585Z,101785.47
2022-08-05T22:47:28.972Z,101543.66
2022-08-05T22:50:19.029Z,101392.53
2022-08-05T22:52:53.642Z,101776.72
2022-08-05T22:55:24.276Z,101546.13
2022-08-05T22:57:53.651Z,101782.81
2022-08-05T23:00:24.754Z,101783.47
2022-08-05T23:02:56.728Z,101785.97
2022-08-05T23:05:31.500Z,101790.13
2022-08-05T23:08:06.260Z,101789.88
2022-08-05T23:10:33.354Z,101789.69
2022-08-05T23:13:03.248Z,101747.50
2022-08-05T23:15:36.354Z,101693.28
2022-08-05T23:18:11.602Z,101797.63
2022-08-05T23:20:44.181Z,101667.09
2022-08-05T23:23:10.784Z,101748.38
2022-08-05T23:25:51.131Z,101808.50
2022-08-05T23:28:26.895Z,101698.28
2022-08-05T23:31:16.046Z,101800.59
2022-08-05T23:34:03.879Z,101318.47
2022-08-05T23:36:45.674Z,101481.75
2022-08-05T23:39:17.430Z,101810.16
2022-08-05T23:41:56.342Z,101813.06
2022-08-05T23:44:27.829Z,101440.22
2022-08-05T23:47:02.611Z,101822.25
2022-08-05T23:49:45.926Z,101826.44
2022-08-05T23:52:30.745Z,101836.41
2022-08-05T23:55:08.996Z,101581.44
2022-08-05T23:57:38.786Z,101791.09
